createdAt,value
2018-06-30T00:00:16.733Z,13.57
2018-06-30T00:02:45.289Z,13.70
2018-06-30T00:05:16.510Z,10.07
2018-06-30T00:07:45.018Z,10.60
2018-06-30T00:10:18.553Z,10.77
2018-06-30T00:12:46.988Z,12.17
2018-06-30T00:15:15.616Z,11.47
2018-06-30T00:17:43.884Z,11.07
2018-06-30T00:20:12.476Z,11.27
2018-06-30T00:22:41.584Z,13.00
2018-06-30T00:25:09.906Z,16.97
2018-06-30T00:27:38.466Z,13.07
2018-06-30T00:30:07.025Z,15.40
2018-06-30T00:32:35.542Z,9.73
2018-06-30T00:35:04.333Z,12.87
2018-06-30T00:37:33.006Z,11.50
2018-06-30T00:40:01.604Z,10.37
2018-06-30T00:42:30.661Z,13.57
2018-06-30T00:44:59.681Z,11.90
2018-06-30T00:47:28.467Z,10.93
2018-06-30T00:49:57.198Z,10.47
2018-06-30T00:52:25.751Z,12.97
2018-06-30T00:54:54.465Z,10.80
2018-06-30T00:57:23.341Z,10.13
2018-06-30T00:59:52.100Z,15.90
2018-06-30T01:02:20.606Z,13.87
2018-06-30T01:04:49.038Z,14.13
2018-06-30T01:07:17.698Z,16.13
2018-06-30T01:09:46.173Z,16.50
2018-06-30T01:12:15.049Z,13.40
2018-06-30T01:14:43.773Z,16.07
2018-06-30T01:17:12.134Z,11.17
2018-06-30T01:19:40.841Z,14.10
2018-06-30T01:22:09.370Z,14.53
2018-06-30T01:24:38.192Z,15.90
2018-06-30T01:27:06.806Z,11.37
2018-06-30T01:29:35.435Z,15.20
2018-06-30T01:32:04.027Z,10.93
2018-06-30T01:34:33.249Z,13.30
2018-06-30T01:37:02.683Z,16.03
2018-06-30T01:39:31.340Z,15.57
2018-06-30T01:42:00.085Z,14.87
2018-06-30T01:44:28.573Z,14.47
2018-06-30T01:46:57.003Z,15.27
2018-06-30T01:49:25.596Z,18.73
2018-06-30T01:51:54.848Z,14.80
2018-06-30T01:54:23.642Z,13.73
2018-06-30T01:56:52.141Z,15.87
2018-06-30T01:59:20.882Z,16.00
2018-06-30T02:01:52.364Z,15.80
2018-06-30T02:04:20.869Z,16.73
2018-06-30T02:06:49.815Z,14.73
2018-06-30T02:09:18.324Z,20.77
2018-06-30T02:11:47.327Z,15.03
2018-06-30T02:14:15.749Z,14.17
2018-06-30T02:16:44.092Z,16.93
2018-06-30T02:19:12.623Z,15.07
2018-06-30T02:21:40.919Z,16.37
2018-06-30T02:24:09.612Z,16.30
2018-06-30T02:26:39.030Z,17.77
2018-06-30T02:29:07.929Z,13.80
2018-06-30T02:31:36.375Z,14.70
2018-06-30T02:34:05.547Z,20.00
2018-06-30T02:36:34.237Z,20.57
2018-06-30T02:39:03.213Z,16.23
2018-06-30T02:41:31.649Z,15.50
2018-06-30T02:44:00.352Z,17.87
2018-06-30T02:46:29.047Z,17.57
2018-06-30T02:48:57.600Z,16.97
2018-06-30T02:51:26.377Z,18.27
2018-06-30T02:53:55.000Z,17.63
2018-06-30T02:56:23.667Z,21.90
2018-06-30T02:58:52.925Z,18.97
2018-06-30T03:01:21.755Z,22.00
2018-06-30T03:03:50.539Z,21.67
2018-06-30T03:06:18.921Z,20.67
2018-06-30T03:08:47.550Z,16.80
2018-06-30T03:11:15.839Z,23.50
2018-06-30T03:13:44.326Z,17.27
2018-06-30T03:16:16.181Z,18.77
2018-06-30T03:18:45.862Z,17.87
2018-06-30T03:21:14.285Z,19.10
2018-06-30T03:23:43.058Z,18.87
2018-06-30T03:26:11.674Z,21.13
2018-06-30T03:28:40.432Z,23.53
2018-06-30T03:31:09.175Z,19.23
2018-06-30T03:33:37.680Z,16.63
2018-06-30T03:36:06.326Z,15.30
2018-06-30T03:38:34.943Z,22.20
2018-06-30T03:41:04.565Z,21.10
2018-06-30T03:43:32.969Z,20.00
2018-06-30T03:46:01.503Z,21.33
2018-06-30T03:48:29.888Z,19.60
2018-06-30T03:50:58.349Z,19.90
2018-06-30T03:53:27.265Z,18.73
2018-06-30T03:55:55.935Z,17.50
2018-06-30T03:58:24.346Z,22.43
2018-06-30T04:00:53.051Z,20.37
2018-06-30T04:03:22.604Z,18.60
2018-06-30T04:05:51.680Z,19.43
2018-06-30T04:08:20.298Z,17.43
2018-06-30T04:10:48.788Z,19.50
2018-06-30T04:13:17.284Z,18.23
2018-06-30T04:15:46.067Z,20.33
2018-06-30T04:18:14.661Z,17.77
2018-06-30T04:20:43.112Z,22.50
2018-06-30T04:23:11.870Z,19.00
2018-06-30T04:25:40.298Z,20.57
2018-06-30T04:28:09.197Z,17.40
2018-06-30T04:30:38.082Z,23.80
2018-06-30T04:33:10.058Z,18.80
2018-06-30T04:35:38.774Z,21.83
2018-06-30T04:38:07.416Z,21.90
2018-06-30T04:40:36.000Z,19.43
2018-06-30T04:43:04.730Z,19.83
2018-06-30T04:45:33.999Z,18.10
2018-06-30T04:48:02.675Z,19.90
2018-06-30T04:50:31.237Z,19.40
2018-06-30T04:52:59.850Z,22.10
2018-06-30T04:55:28.253Z,17.17
2018-06-30T04:57:56.533Z,23.77
2018-06-30T05:00:25.140Z,18.10
2018-06-30T05:02:53.627Z,22.47
2018-06-30T05:05:22.147Z,20.03
2018-06-30T05:07:50.601Z,22.27
2018-06-30T05:10:18.995Z,21.73
2018-06-30T05:12:47.767Z,21.27
2018-06-30T05:15:16.247Z,21.07
2018-06-30T05:17:44.847Z,19.50
2018-06-30T05:20:13.340Z,19.70
2018-06-30T05:22:41.825Z,23.50
2018-06-30T05:25:10.579Z,25.07
2018-06-30T05:27:39.128Z,22.53
2018-06-30T05:30:07.631Z,17.53
2018-06-30T05:32:40.302Z,18.53
2018-06-30T05:35:09.469Z,16.57
2018-06-30T05:37:37.865Z,21.63
2018-06-30T05:40:06.186Z,23.13
2018-06-30T05:42:34.653Z,26.07
2018-06-30T05:45:03.287Z,21.27
2018-06-30T05:47:43.931Z,19.40
2018-06-30T05:50:12.531Z,19.03
2018-06-30T05:52:40.997Z,20.93
2018-06-30T05:55:09.685Z,16.90
2018-06-30T05:57:38.504Z,16.93
2018-06-30T06:00:07.590Z,18.83
2018-06-30T06:02:35.997Z,19.77
2018-06-30T06:05:05.584Z,19.53
2018-06-30T06:07:33.951Z,18.50
2018-06-30T06:10:03.323Z,19.40
2018-06-30T06:12:31.868Z,14.90
2018-06-30T06:15:03.027Z,16.67
2018-06-30T06:17:31.547Z,13.27
2018-06-30T06:20:00.127Z,17.80
2018-06-30T06:22:31.545Z,16.87
2018-06-30T06:25:03.185Z,21.27
2018-06-30T06:27:31.727Z,18.03
2018-06-30T06:30:00.304Z,17.27
2018-06-30T06:32:28.911Z,16.80
2018-06-30T06:34:57.911Z,17.00
2018-06-30T06:37:26.240Z,19.13
2018-06-30T06:39:54.676Z,17.17
2018-06-30T06:42:23.169Z,13.80
2018-06-30T06:44:51.715Z,19.07
2018-06-30T06:47:20.512Z,19.80
2018-06-30T06:49:49.206Z,16.10
2018-06-30T06:52:17.698Z,19.93
2018-06-30T06:54:46.343Z,15.50
2018-06-30T06:57:14.999Z,19.80
2018-06-30T06:59:43.498Z,16.00
2018-06-30T07:02:11.980Z,16.10
2018-06-30T07:04:40.766Z,18.10
2018-06-30T07:07:09.822Z,12.67
2018-06-30T07:09:38.353Z,18.80
2018-06-30T07:12:06.865Z,13.33
2018-06-30T07:14:35.421Z,19.57
2018-06-30T07:17:04.007Z,14.67
2018-06-30T07:19:33.029Z,14.73
2018-06-30T07:22:02.127Z,17.10
2018-06-30T07:24:30.785Z,16.27
2018-06-30T07:26:59.403Z,15.30
2018-06-30T07:29:28.185Z,16.73
2018-06-30T07:31:56.841Z,12.90
2018-06-30T07:34:25.640Z,14.77
2018-06-30T07:36:54.149Z,14.07
2018-06-30T07:39:22.719Z,15.90
2018-06-30T07:41:51.476Z,16.10
2018-06-30T07:44:20.216Z,15.13
2018-06-30T07:46:48.771Z,12.43
2018-06-30T07:49:17.349Z,17.27
2018-06-30T07:51:46.396Z,15.47
2018-06-30T07:54:14.949Z,13.97
2018-06-30T07:56:43.816Z,11.73
2018-06-30T07:59:12.328Z,16.53
2018-06-30T08:01:40.839Z,13.37
2018-06-30T08:04:09.338Z,13.20
2018-06-30T08:06:37.975Z,11.40
2018-06-30T08:09:09.583Z,13.03
2018-06-30T08:11:39.041Z,14.80
2018-06-30T08:14:07.636Z,13.60
2018-06-30T08:16:36.195Z,12.43
2018-06-30T08:19:05.636Z,12.93
2018-06-30T08:21:34.904Z,13.43
2018-06-30T08:24:04.720Z,13.60
2018-06-30T08:26:34.194Z,19.43
2018-06-30T08:29:05.376Z,11.03
2018-06-30T08:31:33.955Z,9.37
2018-06-30T08:34:05.397Z,14.90
2018-06-30T08:36:38.171Z,16.27
2018-06-30T08:39:11.468Z,10.23
2018-06-30T08:41:41.141Z,8.80
2018-06-30T08:44:09.721Z,7.50
2018-06-30T08:46:38.922Z,9.57
2018-06-30T08:49:08.183Z,13.70
2018-06-30T08:51:36.939Z,12.27
2018-06-30T08:54:06.085Z,9.53
2018-06-30T08:56:35.641Z,6.87
2018-06-30T08:59:05.019Z,11.83
2018-06-30T09:01:34.298Z,8.87
2018-06-30T09:04:03.837Z,9.27
2018-06-30T09:06:33.279Z,10.20
2018-06-30T09:09:06.271Z,7.03
2018-06-30T09:11:35.644Z,9.30
2018-06-30T09:14:04.735Z,10.00
2018-06-30T09:16:34.684Z,7.43
2018-06-30T09:19:06.198Z,7.53
2018-06-30T09:21:35.060Z,14.90
2018-06-30T09:24:04.389Z,10.23
2018-06-30T09:26:33.728Z,8.30
2018-06-30T09:29:05.146Z,6.23
2018-06-30T09:31:34.662Z,9.07
2018-06-30T09:34:05.241Z,10.30
2018-06-30T09:36:34.441Z,11.33
2018-06-30T09:39:04.192Z,7.07
2018-06-30T09:41:33.385Z,5.40
2018-06-30T09:44:04.529Z,7.03
2018-06-30T09:46:33.672Z,5.80
2018-06-30T09:49:04.542Z,6.87
2018-06-30T09:51:34.218Z,9.03
2018-06-30T09:54:03.810Z,9.77
2018-06-30T09:56:33.139Z,8.37
2018-06-30T09:59:05.166Z,6.20
2018-06-30T10:01:35.442Z,5.83
2018-06-30T10:04:06.210Z,11.80
2018-06-30T10:06:35.464Z,7.87
2018-06-30T10:09:07.388Z,9.57
2018-06-30T10:11:37.207Z,8.27
2018-06-30T10:14:07.117Z,9.10
2018-06-30T10:16:37.424Z,4.27
2018-06-30T10:19:06.679Z,6.87
2018-06-30T10:21:35.931Z,7.63
2018-06-30T10:24:06.198Z,7.83
2018-06-30T10:26:34.948Z,9.73
2018-06-30T10:29:04.912Z,7.57
2018-06-30T10:31:33.552Z,5.77
2018-06-30T10:34:04.329Z,5.70
2018-06-30T10:36:33.834Z,5.10
2018-06-30T10:39:06.380Z,8.50
2018-06-30T10:41:35.142Z,7.10
2018-06-30T10:44:05.439Z,6.83
2018-06-30T10:46:35.652Z,9.17
2018-06-30T10:49:05.556Z,5.67
2018-06-30T10:51:35.431Z,6.20
2018-06-30T10:54:05.009Z,9.67
2018-06-30T10:56:34.060Z,7.10
2018-06-30T10:59:03.358Z,7.60
2018-06-30T11:01:32.759Z,8.93
2018-06-30T11:04:03.016Z,7.53
2018-06-30T11:06:32.225Z,6.60
2018-06-30T11:09:02.454Z,9.90
2018-06-30T11:11:33.381Z,6.00
2018-06-30T11:14:04.074Z,9.00
2018-06-30T11:16:33.831Z,5.53
2018-06-30T11:19:04.301Z,8.97
2018-06-30T11:21:34.661Z,10.00
2018-06-30T11:24:04.482Z,7.07
2018-06-30T11:26:33.801Z,8.23
2018-06-30T11:29:03.839Z,5.23
2018-06-30T11:31:34.237Z,6.57
2018-06-30T11:34:03.829Z,7.37
2018-06-30T11:36:33.185Z,4.20
2018-06-30T11:39:08.519Z,7.33
2018-06-30T11:41:37.479Z,5.97
2018-06-30T11:44:06.048Z,7.30
2018-06-30T11:46:35.565Z,5.00
2018-06-30T11:49:05.012Z,5.10
2018-06-30T11:51:35.315Z,9.30
2018-06-30T11:54:05.048Z,5.50
2018-06-30T11:56:34.611Z,6.87
2018-06-30T11:59:04.056Z,4.63
2018-06-30T12:01:34.034Z,3.27
2018-06-30T12:04:05.017Z,6.20
2018-06-30T12:06:34.258Z,4.33
2018-06-30T12:09:05.569Z,6.50
2018-06-30T12:11:35.322Z,4.13
2018-06-30T12:14:06.237Z,5.30
2018-06-30T12:16:35.382Z,5.47
2018-06-30T12:19:05.944Z,4.70
2018-06-30T12:21:35.598Z,5.63
2018-06-30T12:24:06.368Z,3.57
2018-06-30T12:26:35.689Z,4.00
2018-06-30T12:29:05.295Z,6.67
2018-06-30T12:31:35.179Z,6.90
2018-06-30T12:34:04.764Z,4.03
2018-06-30T12:36:34.227Z,7.17
2018-06-30T12:39:06.424Z,12.60
2018-06-30T12:41:36.231Z,10.93
2018-06-30T12:44:05.179Z,15.00
2018-06-30T12:46:34.432Z,11.10
2018-06-30T12:49:04.205Z,12.93
2018-06-30T12:51:34.116Z,11.83
2018-06-30T12:54:03.738Z,13.63
2018-06-30T12:56:33.300Z,8.07
2018-06-30T12:59:04.525Z,6.70
2018-06-30T13:01:33.372Z,9.13
2018-06-30T13:04:03.604Z,9.60
2018-06-30T13:06:34.359Z,7.77
2018-06-30T13:09:07.996Z,4.50
2018-06-30T13:11:36.652Z,5.93
2018-06-30T13:14:06.491Z,4.20
2018-06-30T13:16:36.016Z,6.40
2018-06-30T13:19:06.595Z,5.67
2018-06-30T13:21:35.845Z,5.67
2018-06-30T13:24:05.836Z,4.07
2018-06-30T13:26:35.311Z,7.63
2018-06-30T13:29:04.757Z,3.73
2018-06-30T13:31:33.794Z,3.07
2018-06-30T13:34:04.871Z,4.00
2018-06-30T13:36:34.396Z,5.80
2018-06-30T13:39:06.533Z,11.53
2018-06-30T13:41:36.053Z,7.63
2018-06-30T13:44:06.760Z,6.53
2018-06-30T13:46:35.437Z,5.70
2018-06-30T13:49:05.511Z,4.67
2018-06-30T13:51:34.491Z,3.20
2018-06-30T13:54:06.274Z,2.60
2018-06-30T13:56:35.269Z,3.50
2018-06-30T13:59:05.401Z,4.30
2018-06-30T14:01:34.619Z,5.57
2018-06-30T14:04:03.960Z,5.93
2018-06-30T14:06:33.541Z,7.90
2018-06-30T14:09:06.305Z,4.87
2018-06-30T14:11:35.199Z,4.43
2018-06-30T14:14:05.858Z,8.13
2018-06-30T14:16:34.979Z,5.17
2018-06-30T14:19:04.112Z,2.43
2018-06-30T14:21:33.053Z,5.43
2018-06-30T14:24:04.057Z,3.47
2018-06-30T14:26:34.644Z,6.13
2018-06-30T14:29:05.169Z,6.73
2018-06-30T14:31:34.860Z,4.30
2018-06-30T14:34:06.077Z,4.73
2018-06-30T14:36:35.239Z,5.60
2018-06-30T14:39:07.268Z,3.67
2018-06-30T14:41:36.366Z,4.60
2018-06-30T14:44:06.255Z,5.77
2018-06-30T14:46:36.125Z,5.63
2018-06-30T14:49:06.280Z,7.20
2018-06-30T14:51:35.742Z,8.67
2018-06-30T14:54:05.840Z,3.87
2018-06-30T14:56:35.404Z,3.43
2018-06-30T14:59:06.094Z,2.80
2018-06-30T15:01:35.868Z,3.17
2018-06-30T15:04:08.024Z,3.77
2018-06-30T15:06:37.026Z,4.50
2018-06-30T15:09:11.536Z,5.67
2018-06-30T15:11:41.212Z,9.53
2018-06-30T15:14:10.108Z,13.73
2018-06-30T15:16:39.590Z,2.97
2018-06-30T15:19:08.828Z,5.07
2018-06-30T15:21:37.612Z,14.77
2018-06-30T15:24:13.357Z,2.87
2018-06-30T15:26:42.159Z,4.83
2018-06-30T15:29:10.775Z,5.07
2018-06-30T15:31:39.608Z,5.93
2018-06-30T15:34:08.207Z,2.83
2018-06-30T15:36:36.633Z,3.80
2018-06-30T15:39:08.963Z,4.47
2018-06-30T15:41:37.673Z,4.50
2018-06-30T15:44:07.013Z,2.83
2018-06-30T15:46:36.158Z,3.80
2018-06-30T15:49:05.916Z,10.97
2018-06-30T15:51:35.397Z,5.73
2018-06-30T15:54:05.374Z,6.13
2018-06-30T15:56:34.637Z,4.37
2018-06-30T15:59:10.280Z,12.87
2018-06-30T16:01:38.944Z,4.23
2018-06-30T16:04:07.787Z,4.73
2018-06-30T16:06:42.024Z,6.93
2018-06-30T16:09:13.632Z,5.13
2018-06-30T16:11:47.496Z,3.17
2018-06-30T16:14:23.176Z,4.20
2018-06-30T16:19:12.568Z,6.80
2018-06-30T16:21:41.018Z,3.17
2018-06-30T16:24:09.713Z,6.17
2018-06-30T16:26:41.376Z,4.33
2018-06-30T16:29:10.131Z,6.20
2018-06-30T16:31:38.768Z,2.77
2018-06-30T16:34:08.723Z,3.27
2018-06-30T16:36:37.935Z,3.13
2018-06-30T16:39:09.821Z,4.80
2018-06-30T16:41:39.778Z,2.03
2018-06-30T16:44:08.333Z,5.43
2018-06-30T16:46:37.453Z,8.17
2018-06-30T16:49:06.720Z,3.33
2018-06-30T16:51:35.284Z,3.07
2018-06-30T16:54:04.374Z,3.73
2018-06-30T16:56:33.231Z,4.47
2018-06-30T16:59:01.904Z,3.77
2018-06-30T17:01:30.672Z,4.03
2018-06-30T17:03:59.891Z,5.07
2018-06-30T17:06:28.442Z,2.67
2018-06-30T17:08:57.003Z,3.83
2018-06-30T17:11:25.561Z,3.73
2018-06-30T17:13:54.144Z,3.73
2018-06-30T17:16:22.612Z,3.70
2018-06-30T17:18:51.284Z,4.50
2018-06-30T17:21:19.829Z,6.00
2018-06-30T17:23:48.375Z,6.90
2018-06-30T17:26:17.127Z,3.27
2018-06-30T17:28:45.765Z,6.27
2018-06-30T17:31:14.411Z,3.97
2018-06-30T17:33:43.676Z,4.47
2018-06-30T17:36:12.204Z,9.97
2018-06-30T17:38:41.016Z,5.53
2018-06-30T17:41:09.652Z,4.93
2018-06-30T17:43:38.314Z,3.00
2018-06-30T17:46:07.230Z,3.70
2018-06-30T17:48:35.827Z,6.47
2018-06-30T17:51:04.507Z,18.33
2018-06-30T17:53:33.185Z,18.70
2018-06-30T17:56:01.496Z,5.97
2018-06-30T17:58:30.059Z,5.93
2018-06-30T18:00:58.619Z,4.20
2018-06-30T18:03:27.165Z,4.57
2018-06-30T18:05:55.525Z,5.83
2018-06-30T18:08:24.028Z,4.73
2018-06-30T18:10:52.421Z,7.50
2018-06-30T18:13:21.096Z,10.00
2018-06-30T18:15:49.436Z,5.83
2018-06-30T18:18:18.129Z,8.03
2018-06-30T18:20:46.831Z,4.77
2018-06-30T18:23:15.412Z,5.90
2018-06-30T18:25:44.369Z,6.77
2018-06-30T18:28:12.863Z,7.87
2018-06-30T18:30:41.435Z,2.20
2018-06-30T18:33:09.911Z,2.00
2018-06-30T18:35:38.877Z,5.90
2018-06-30T18:38:07.699Z,4.93
2018-06-30T18:40:36.528Z,6.20
2018-06-30T18:43:05.401Z,2.13
2018-06-30T18:45:34.150Z,2.20
2018-06-30T18:48:02.982Z,7.70
2018-06-30T18:50:31.837Z,5.43
2018-06-30T18:53:00.551Z,3.63
2018-06-30T18:55:29.100Z,3.47
2018-06-30T18:57:57.806Z,2.80
2018-06-30T19:00:26.299Z,4.03
2018-06-30T19:02:54.902Z,6.37
2018-06-30T19:05:23.563Z,4.83
2018-06-30T19:07:52.085Z,9.93
2018-06-30T19:10:20.603Z,5.10
2018-06-30T19:12:49.139Z,6.67
2018-06-30T19:15:17.744Z,3.00
2018-06-30T19:17:46.306Z,4.70
2018-06-30T19:20:15.401Z,3.00
2018-06-30T19:22:44.696Z,7.30
2018-06-30T19:25:13.344Z,3.93
2018-06-30T19:27:42.276Z,1.97
2018-06-30T19:30:11.279Z,3.87
2018-06-30T19:32:40.260Z,7.00
2018-06-30T19:35:08.897Z,4.67
2018-06-30T19:37:37.438Z,3.10
2018-06-30T19:40:06.377Z,8.43
2018-06-30T19:42:35.629Z,2.07
2018-06-30T19:45:04.912Z,2.77
2018-06-30T19:47:35.572Z,5.30
2018-06-30T19:50:05.331Z,3.40
2018-06-30T19:52:34.881Z,6.73
2018-06-30T19:55:04.442Z,1.40
2018-06-30T19:57:34.125Z,6.87
2018-06-30T20:00:03.123Z,3.93
2018-06-30T20:02:31.985Z,5.67
2018-06-30T20:05:00.957Z,6.10
2018-06-30T20:07:34.153Z,3.47
2018-06-30T20:10:04.580Z,6.03
2018-06-30T20:12:34.222Z,3.43
2018-06-30T20:15:03.213Z,6.20
2018-06-30T20:17:33.073Z,5.90
2018-06-30T20:20:03.133Z,4.03
2018-06-30T20:22:32.148Z,4.80
2018-06-30T20:25:01.116Z,4.03
2018-06-30T20:27:30.249Z,7.23
2018-06-30T20:29:58.817Z,3.40
2018-06-30T20:32:28.570Z,3.93
2018-06-30T20:34:58.845Z,4.43
2018-06-30T20:37:28.730Z,5.33
2018-06-30T20:39:58.336Z,4.63
2018-06-30T20:42:27.888Z,3.57
2018-06-30T20:44:58.061Z,5.00
2018-06-30T20:47:27.971Z,4.30
2018-06-30T20:49:57.339Z,4.53
2018-06-30T20:52:27.290Z,3.37
2018-06-30T20:54:55.896Z,5.57
2018-06-30T20:57:24.409Z,5.03
2018-06-30T20:59:52.997Z,7.37
2018-06-30T21:02:21.761Z,5.57
2018-06-30T21:04:50.522Z,12.57
2018-06-30T21:07:19.329Z,4.23
2018-06-30T21:09:47.946Z,6.17
2018-06-30T21:12:16.305Z,4.53
2018-06-30T21:14:45.205Z,7.70
2018-06-30T21:17:13.773Z,4.60
2018-06-30T21:19:42.332Z,6.30
2018-06-30T21:22:11.056Z,5.20
2018-06-30T21:24:39.504Z,5.17
2018-06-30T21:27:08.445Z,3.40
2018-06-30T21:29:36.703Z,3.63
2018-06-30T21:32:06.084Z,2.40
2018-06-30T21:34:34.888Z,5.53
2018-06-30T21:37:05.001Z,4.10
2018-06-30T21:39:34.660Z,3.43
2018-06-30T21:42:03.719Z,9.53
2018-06-30T21:44:33.496Z,3.40
2018-06-30T21:47:02.946Z,6.67
2018-06-30T21:49:32.730Z,4.57
2018-06-30T21:52:01.532Z,4.63
2018-06-30T21:54:30.063Z,4.87
2018-06-30T21:56:58.824Z,5.47
2018-06-30T21:59:27.300Z,3.67
2018-06-30T22:01:56.082Z,3.10
2018-06-30T22:04:25.458Z,3.10
2018-06-30T22:06:55.126Z,4.93
2018-06-30T22:09:24.037Z,3.83
2018-06-30T22:11:52.913Z,5.33
2018-06-30T22:14:21.805Z,4.57
2018-06-30T22:16:55.120Z,4.47
2018-06-30T22:19:23.636Z,6.33
2018-06-30T22:21:52.189Z,5.30
2018-06-30T22:24:20.700Z,5.73
2018-06-30T22:26:49.368Z,3.80
2018-06-30T22:29:18.219Z,3.83
2018-06-30T22:31:46.559Z,4.40
2018-06-30T22:34:15.078Z,3.33
2018-06-30T22:36:43.421Z,5.90
2018-06-30T22:39:12.258Z,7.63
2018-06-30T22:41:40.886Z,3.60
2018-06-30T22:44:09.360Z,1.87
2018-06-30T22:46:37.900Z,5.30
2018-06-30T22:49:07.379Z,2.93
2018-06-30T22:51:37.011Z,4.50
2018-06-30T22:54:06.387Z,3.80
2018-06-30T22:56:35.924Z,1.70
2018-06-30T22:59:05.045Z,3.83
2018-06-30T23:01:34.479Z,2.17
2018-06-30T23:04:03.730Z,2.23
2018-06-30T23:06:33.069Z,4.43
2018-06-30T23:09:02.389Z,2.53
2018-06-30T23:11:31.437Z,1.70
2018-06-30T23:14:00.393Z,3.73
2018-06-30T23:16:29.104Z,3.27
2018-06-30T23:18:58.776Z,4.03
2018-06-30T23:21:28.292Z,4.20
2018-06-30T23:23:57.289Z,4.30
2018-06-30T23:26:26.437Z,6.93
2018-06-30T23:28:55.196Z,4.73
2018-06-30T23:31:24.354Z,4.20
2018-06-30T23:33:54.371Z,4.87
2018-06-30T23:36:22.932Z,3.47
2018-06-30T23:38:51.730Z,3.40
2018-06-30T23:41:20.433Z,3.00
2018-06-30T23:43:49.325Z,1.40
2018-06-30T23:46:18.091Z,3.10
2018-06-30T23:48:46.686Z,2.93
2018-06-30T23:51:15.298Z,3.00
2018-06-30T23:53:44.021Z,2.37
2018-06-30T23:56:12.583Z,3.27
2018-06-30T23:58:41.086Z,3.07
